createdAt,value
2018-02-19T00:00:14.027Z,0.00
2018-02-19T00:02:07.429Z,0.00
2018-02-19T00:03:07.404Z,0.00
2018-02-19T00:05:00.783Z,0.00
2018-02-19T00:06:00.782Z,0.00
2018-02-19T00:07:54.182Z,0.00
2018-02-19T00:08:54.159Z,0.00
2018-02-19T00:10:47.554Z,0.00
2018-02-19T00:11:47.538Z,0.00
2018-02-19T00:13:40.934Z,0.00
2018-02-19T00:14:40.922Z,0.00
2018-02-19T00:16:34.304Z,0.00
2018-02-19T00:17:34.293Z,0.00
2018-02-19T00:19:27.708Z,0.00
2018-02-19T00:20:27.671Z,0.00
2018-02-19T00:22:21.048Z,0.00
2018-02-19T00:23:21.053Z,0.00
2018-02-19T00:25:14.450Z,0.00
2018-02-19T00:26:14.431Z,0.00
2018-02-19T00:28:07.816Z,0.00
2018-02-19T00:29:07.814Z,0.00
2018-02-19T00:31:01.208Z,0.00
2018-02-19T00:32:01.179Z,0.00
2018-02-19T00:33:54.588Z,0.00
2018-02-19T00:34:54.557Z,0.00
2018-02-19T00:36:47.934Z,0.00
2018-02-19T00:37:47.943Z,0.00
2018-02-19T00:39:41.330Z,0.00
2018-02-19T00:40:41.345Z,0.00
2018-02-19T00:42:34.693Z,0.00
2018-02-19T00:43:34.689Z,0.00
2018-02-19T00:45:28.083Z,0.00
2018-02-19T00:46:28.077Z,0.00
2018-02-19T00:48:21.443Z,0.00
2018-02-19T00:49:21.440Z,0.00
2018-02-19T00:51:14.837Z,0.00
2018-02-19T00:52:14.818Z,0.00
2018-02-19T00:54:08.200Z,0.00
2018-02-19T00:55:08.204Z,0.00
2018-02-19T00:57:01.614Z,0.00
2018-02-19T00:58:01.577Z,0.00
2018-02-19T00:59:54.953Z,0.00
2018-02-19T01:00:54.951Z,0.00
2018-02-19T01:02:48.355Z,0.00
2018-02-19T01:03:48.331Z,0.00
2018-02-19T01:05:41.713Z,0.00
2018-02-19T01:06:41.704Z,0.00
2018-02-19T01:08:35.109Z,0.00
2018-02-19T01:09:35.082Z,0.00
2018-02-19T01:11:28.494Z,0.00
2018-02-19T01:12:28.461Z,0.00
2018-02-19T01:14:21.858Z,0.00
2018-02-19T01:15:21.833Z,0.00
2018-02-19T01:17:15.220Z,0.00
2018-02-19T01:18:15.212Z,0.00
2018-02-19T01:20:08.608Z,0.00
2018-02-19T01:21:08.587Z,0.00
2018-02-19T01:23:01.968Z,0.00
2018-02-19T01:24:01.976Z,0.00
2018-02-19T01:25:55.363Z,0.00
2018-02-19T01:26:55.350Z,0.00
2018-02-19T01:28:48.787Z,0.00
2018-02-19T01:29:48.739Z,0.00
2018-02-19T01:31:42.129Z,0.00
2018-02-19T01:32:42.125Z,0.00
2018-02-19T01:34:35.519Z,0.00
2018-02-19T01:35:35.515Z,0.00
2018-02-19T01:37:28.879Z,0.00
2018-02-19T01:38:28.874Z,0.00
2018-02-19T01:40:22.266Z,0.00
2018-02-19T01:41:22.260Z,0.00
2018-02-19T01:43:15.624Z,0.00
2018-02-19T01:44:15.633Z,0.00
2018-02-19T01:46:09.023Z,0.00
2018-02-19T01:47:09.007Z,0.00
2018-02-19T01:49:02.388Z,0.00
2018-02-19T01:50:02.375Z,0.00
2018-02-19T01:51:55.776Z,0.00
2018-02-19T01:52:55.750Z,0.00
2018-02-19T01:54:49.140Z,0.00
2018-02-19T01:55:49.138Z,0.00
2018-02-19T01:57:42.541Z,0.00
2018-02-19T01:58:42.521Z,0.00
2018-02-19T02:00:35.892Z,0.00
2018-02-19T02:01:35.893Z,0.00
2018-02-19T02:03:29.288Z,0.00
2018-02-19T02:04:29.271Z,0.00
2018-02-19T02:06:22.709Z,0.00
2018-02-19T02:07:22.654Z,0.00
2018-02-19T02:09:16.068Z,0.00
2018-02-19T02:10:16.020Z,0.00
2018-02-19T02:12:09.402Z,0.00
2018-02-19T02:13:09.410Z,0.00
2018-02-19T02:15:02.793Z,0.00
2018-02-19T02:16:02.773Z,0.00
2018-02-19T02:17:56.150Z,0.00
2018-02-19T02:18:56.149Z,0.00
2018-02-19T02:20:49.546Z,0.00
2018-02-19T02:21:49.530Z,0.00
2018-02-19T02:23:42.911Z,0.00
2018-02-19T02:24:42.914Z,0.00
2018-02-19T02:26:36.301Z,0.00
2018-02-19T02:27:36.281Z,0.00
2018-02-19T02:29:29.691Z,0.00
2018-02-19T02:30:29.667Z,0.00
2018-02-19T02:32:23.036Z,0.00
2018-02-19T02:33:23.030Z,0.00
2018-02-19T02:35:16.477Z,0.00
2018-02-19T02:36:16.425Z,0.00
2018-02-19T02:38:09.816Z,0.00
2018-02-19T02:39:09.806Z,0.00
2018-02-19T02:41:03.213Z,0.00
2018-02-19T02:42:03.207Z,0.00
2018-02-19T02:43:56.577Z,0.00
2018-02-19T02:44:56.568Z,0.00
2018-02-19T02:46:49.963Z,0.00
2018-02-19T02:47:49.951Z,0.00
2018-02-19T02:49:43.321Z,0.00
2018-02-19T02:50:43.319Z,0.00
2018-02-19T02:52:37.716Z,0.00
2018-02-19T02:53:37.697Z,0.00
2018-02-19T02:55:31.071Z,0.00
2018-02-19T02:56:31.070Z,0.00
2018-02-19T02:58:24.475Z,0.00
2018-02-19T02:59:24.446Z,0.00
2018-02-19T03:01:17.822Z,0.00
2018-02-19T03:02:17.838Z,0.00
2018-02-19T03:04:11.220Z,0.00
2018-02-19T03:05:11.197Z,0.00
2018-02-19T03:07:04.593Z,0.00
2018-02-19T03:08:04.589Z,0.00
2018-02-19T03:09:57.974Z,0.00
2018-02-19T03:10:57.948Z,0.00
2018-02-19T03:12:51.361Z,0.00
2018-02-19T03:13:51.328Z,0.00
2018-02-19T03:15:44.721Z,0.00
2018-02-19T03:16:44.706Z,0.00
2018-02-19T03:18:38.126Z,0.00
2018-02-19T03:19:38.088Z,0.00
2018-02-19T03:21:31.463Z,0.00
2018-02-19T03:22:31.460Z,0.00
2018-02-19T03:24:24.879Z,0.00
2018-02-19T03:25:24.838Z,0.00
2018-02-19T03:27:18.272Z,0.00
2018-02-19T03:28:18.270Z,0.00
2018-02-19T03:30:11.668Z,0.00
2018-02-19T03:31:11.646Z,0.00
2018-02-19T03:33:05.029Z,0.00
2018-02-19T03:34:05.037Z,0.00
2018-02-19T03:35:58.418Z,0.00
2018-02-19T03:36:58.394Z,0.00
2018-02-19T03:38:51.773Z,0.00
2018-02-19T03:39:51.774Z,0.00
2018-02-19T03:41:45.175Z,0.00
2018-02-19T03:42:45.162Z,0.00
2018-02-19T03:44:38.526Z,0.00
2018-02-19T03:45:38.546Z,0.00
2018-02-19T03:47:31.922Z,0.00
2018-02-19T03:48:31.912Z,0.00
2018-02-19T03:50:25.279Z,0.00
2018-02-19T03:51:25.285Z,0.00
2018-02-19T03:53:18.679Z,0.00
2018-02-19T03:54:18.658Z,0.00
2018-02-19T03:56:12.030Z,0.00
2018-02-19T03:57:12.033Z,0.00
2018-02-19T03:59:06.446Z,0.00
2018-02-19T04:00:06.414Z,0.00
2018-02-19T04:01:59.784Z,0.00
2018-02-19T04:02:59.781Z,0.00
2018-02-19T04:04:53.193Z,0.00
2018-02-19T04:05:53.160Z,0.00
2018-02-19T04:07:46.557Z,0.00
2018-02-19T04:08:46.534Z,0.00
2018-02-19T04:10:39.911Z,0.00
2018-02-19T04:11:39.912Z,0.00
2018-02-19T04:13:33.333Z,0.00
2018-02-19T04:14:33.289Z,0.00
2018-02-19T04:16:26.668Z,0.00
2018-02-19T04:17:26.668Z,0.00
2018-02-19T04:19:20.066Z,0.00
2018-02-19T04:20:20.063Z,0.00
2018-02-19T04:22:13.427Z,0.00
2018-02-19T04:23:13.423Z,0.00
2018-02-19T04:25:06.819Z,0.00
2018-02-19T04:26:06.794Z,0.00
2018-02-19T04:28:00.187Z,0.00
2018-02-19T04:29:00.169Z,0.00
2018-02-19T04:30:53.566Z,0.00
2018-02-19T04:31:53.545Z,0.00
2018-02-19T04:33:46.921Z,0.00
2018-02-19T04:34:46.926Z,0.00
2018-02-19T04:36:40.318Z,0.00
2018-02-19T04:37:40.309Z,0.00
2018-02-19T04:39:33.692Z,0.00
2018-02-19T04:40:33.670Z,0.00
2018-02-19T04:42:27.072Z,0.00
2018-02-19T04:43:27.049Z,0.00
2018-02-19T04:45:20.424Z,0.00
2018-02-19T04:46:20.421Z,0.00
2018-02-19T04:48:13.826Z,0.00
2018-02-19T04:49:13.798Z,0.00
2018-02-19T04:51:07.176Z,0.00
2018-02-19T04:52:07.180Z,0.00
2018-02-19T04:54:00.573Z,0.00
2018-02-19T04:55:00.561Z,0.00
2018-02-19T04:56:53.925Z,0.00
2018-02-19T04:57:53.925Z,0.00
2018-02-19T04:59:47.321Z,0.00
2018-02-19T05:00:47.305Z,0.00
2018-02-19T05:02:40.698Z,0.00
2018-02-19T05:03:40.675Z,0.00
2018-02-19T05:05:34.053Z,0.00
2018-02-19T05:06:34.058Z,0.00
2018-02-19T05:08:27.482Z,0.00
2018-02-19T05:09:27.429Z,0.00
2018-02-19T05:11:20.821Z,0.00
2018-02-19T05:12:20.826Z,0.00
2018-02-19T05:14:14.211Z,0.00
2018-02-19T05:15:14.190Z,0.00
2018-02-19T05:17:07.579Z,0.00
2018-02-19T05:18:07.582Z,0.00
2018-02-19T05:20:00.977Z,0.00
2018-02-19T05:21:00.959Z,0.00
2018-02-19T05:22:54.375Z,0.00
2018-02-19T05:23:54.345Z,0.00
2018-02-19T05:25:47.726Z,0.00
2018-02-19T05:26:47.711Z,0.00
2018-02-19T05:28:41.086Z,0.00
2018-02-19T05:29:41.080Z,0.00
2018-02-19T05:31:34.484Z,0.00
2018-02-19T05:32:34.455Z,0.00
2018-02-19T05:34:27.834Z,0.00
2018-02-19T05:35:27.846Z,0.00
2018-02-19T05:37:21.287Z,0.00
2018-02-19T05:38:21.277Z,0.00
2018-02-19T05:40:14.637Z,0.00
2018-02-19T05:41:14.639Z,0.00
2018-02-19T05:43:08.036Z,0.00
2018-02-19T05:44:08.029Z,0.00
2018-02-19T05:46:01.412Z,0.00
2018-02-19T05:47:01.389Z,0.00
2018-02-19T05:48:54.786Z,0.00
2018-02-19T05:49:54.767Z,0.00
2018-02-19T05:51:48.162Z,4.00
2018-02-19T05:52:48.146Z,0.00
2018-02-19T05:54:41.527Z,0.00
2018-02-19T05:55:41.519Z,4.00
2018-02-19T05:57:34.919Z,4.00
2018-02-19T05:58:34.902Z,8.00
2018-02-19T06:00:28.269Z,12.00
2018-02-19T06:01:28.268Z,12.00
2018-02-19T06:03:21.671Z,16.00
2018-02-19T06:04:21.647Z,24.00
2018-02-19T06:06:15.035Z,32.00
2018-02-19T06:07:15.020Z,36.00
2018-02-19T06:09:08.418Z,48.00
2018-02-19T06:10:08.403Z,56.00
2018-02-19T06:12:01.772Z,68.00
2018-02-19T06:13:01.772Z,80.00
2018-02-19T06:14:55.169Z,104.00
2018-02-19T06:15:55.146Z,124.00
2018-02-19T06:17:48.522Z,156.00
2018-02-19T06:18:48.521Z,176.00
2018-02-19T06:20:41.916Z,216.00
2018-02-19T06:21:41.898Z,240.00
2018-02-19T06:23:35.277Z,276.00
2018-02-19T06:24:35.274Z,296.00
2018-02-19T06:26:28.670Z,348.00
2018-02-19T06:27:28.652Z,384.00
2018-02-19T06:29:22.029Z,448.00
2018-02-19T06:30:22.028Z,480.00
2018-02-19T06:32:15.428Z,532.00
2018-02-19T06:33:15.406Z,560.00
2018-02-19T06:35:08.811Z,592.00
2018-02-19T06:36:08.778Z,620.00
2018-02-19T06:38:02.165Z,688.00
2018-02-19T06:39:02.155Z,724.00
2018-02-19T06:40:55.549Z,792.00
2018-02-19T06:41:55.529Z,828.00
2018-02-19T06:43:48.903Z,904.00
2018-02-19T06:44:48.909Z,940.00
2018-02-19T06:46:42.300Z,992.00
2018-02-19T06:47:42.276Z,1040.00
2018-02-19T06:49:35.157Z,1160.00
2018-02-19T06:50:35.154Z,1228.00
2018-02-19T06:52:28.556Z,1328.00
2018-02-19T06:53:28.532Z,1372.00
2018-02-19T06:55:21.909Z,1488.00
2018-02-19T06:56:21.909Z,1572.00
2018-02-19T06:58:15.324Z,1732.00
2018-02-19T06:59:15.308Z,1816.00
2018-02-19T07:01:08.695Z,1872.00
2018-02-19T07:02:08.671Z,1812.00
2018-02-19T07:04:02.068Z,1704.00
2018-02-19T07:05:02.057Z,1796.00
2018-02-19T07:06:55.431Z,2192.00
2018-02-19T07:07:55.436Z,2324.00
2018-02-19T07:09:48.844Z,2400.00
2018-02-19T07:10:48.802Z,2420.00
2018-02-19T07:12:42.212Z,2416.00
2018-02-19T07:13:42.181Z,2428.00
2018-02-19T07:15:36.569Z,2560.00
2018-02-19T07:16:36.557Z,2684.00
2018-02-19T07:18:29.959Z,2928.00
2018-02-19T07:19:29.941Z,3028.00
2018-02-19T07:21:23.319Z,3212.00
2018-02-19T07:22:23.318Z,3232.00
2018-02-19T07:24:16.738Z,3248.00
2018-02-19T07:25:16.702Z,3268.00
2018-02-19T07:27:10.084Z,3300.00
2018-02-19T07:28:10.081Z,3348.00
2018-02-19T07:30:03.494Z,3472.00
2018-02-19T07:31:03.469Z,3572.00
2018-02-19T07:32:56.854Z,3636.00
2018-02-19T07:33:56.857Z,3672.00
2018-02-19T07:35:50.283Z,3788.00
2018-02-19T07:36:50.236Z,3880.00
2018-02-19T07:38:43.624Z,4040.00
2018-02-19T07:39:43.616Z,4072.00
2018-02-19T07:41:37.017Z,4340.00
2018-02-19T07:42:37.000Z,4424.00
2018-02-19T07:44:30.394Z,4452.00
2018-02-19T07:45:30.374Z,4456.00
2018-02-19T07:47:23.770Z,4356.00
2018-02-19T07:48:23.768Z,4340.00
2018-02-19T07:50:17.401Z,4288.00
2018-02-19T07:51:17.145Z,4228.00
2018-02-19T07:53:10.523Z,4596.00
2018-02-19T07:54:10.523Z,4988.00
2018-02-19T07:56:03.937Z,5484.00
2018-02-19T07:57:03.907Z,5584.00
2018-02-19T07:58:57.293Z,5720.00
2018-02-19T07:59:57.286Z,5804.00
2018-02-19T08:01:50.704Z,5808.00
2018-02-19T08:02:50.668Z,5880.00
2018-02-19T08:04:44.048Z,5956.00
2018-02-19T08:05:44.055Z,5956.00
2018-02-19T08:07:37.457Z,6072.00
2018-02-19T08:08:37.436Z,6176.00
2018-02-19T08:10:31.858Z,6284.00
2018-02-19T08:11:31.834Z,6364.00
2018-02-19T08:13:25.226Z,6876.00
2018-02-19T08:14:25.205Z,6956.00
2018-02-19T08:16:18.588Z,6988.00
2018-02-19T08:17:18.592Z,7052.00
2018-02-19T08:19:11.993Z,7004.00
2018-02-19T08:20:11.961Z,7020.00
2018-02-19T08:22:05.338Z,7024.00
2018-02-19T08:23:05.339Z,7064.00
2018-02-19T08:24:58.745Z,7368.00
2018-02-19T08:25:58.724Z,7380.00
2018-02-19T08:27:52.125Z,7416.00
2018-02-19T08:28:52.104Z,7600.00
2018-02-19T08:30:45.484Z,7496.00
2018-02-19T08:31:45.483Z,7636.00
2018-02-19T08:33:39.882Z,8252.00
2018-02-19T08:34:39.861Z,8388.00
2018-02-19T08:36:33.263Z,8928.00
2018-02-19T08:37:33.273Z,9172.00
2018-02-19T08:39:26.664Z,9260.00
2018-02-19T08:40:26.642Z,8992.00
2018-02-19T08:42:20.022Z,8320.00
2018-02-19T08:43:20.022Z,8080.00
2018-02-19T08:45:13.452Z,8144.00
2018-02-19T08:46:13.401Z,8564.00
2018-02-19T08:48:06.789Z,9608.00
2018-02-19T08:49:06.792Z,10068.00
2018-02-19T08:51:00.186Z,10692.00
2018-02-19T08:52:00.169Z,10840.00
2018-02-19T08:53:53.639Z,10648.00
2018-02-19T08:54:53.547Z,10464.00
2018-02-19T08:56:46.926Z,10128.00
2018-02-19T08:57:46.928Z,10000.00
2018-02-19T08:59:40.331Z,9980.00
2018-02-19T09:00:40.310Z,9940.00
2018-02-19T09:02:33.694Z,10068.00
2018-02-19T09:03:33.696Z,10276.00
2018-02-19T09:05:27.097Z,10284.00
2018-02-19T09:06:27.077Z,10088.00
2018-02-19T09:08:20.467Z,9660.00
2018-02-19T09:09:20.469Z,9476.00
2018-02-19T09:11:13.868Z,9584.00
2018-02-19T09:12:13.851Z,9516.00
2018-02-19T09:14:07.275Z,9604.00
2018-02-19T09:15:07.302Z,10100.00
2018-02-19T09:17:00.703Z,10632.00
2018-02-19T09:18:00.661Z,10620.00
2018-02-19T09:19:54.044Z,10108.00
2018-02-19T09:20:54.051Z,10292.00
2018-02-19T09:22:47.441Z,9836.00
2018-02-19T09:23:47.423Z,10236.00
2018-02-19T09:25:40.806Z,10792.00
2018-02-19T09:26:40.807Z,10880.00
2018-02-19T09:28:34.209Z,11036.00
2018-02-19T09:29:34.185Z,10952.00
2018-02-19T09:31:27.568Z,10352.00
2018-02-19T09:32:27.567Z,10084.00
2018-02-19T09:34:20.983Z,9920.00
2018-02-19T09:35:20.960Z,10028.00
2018-02-19T09:37:14.368Z,10572.00
2018-02-19T09:38:14.342Z,10720.00
2018-02-19T09:40:07.731Z,11352.00
2018-02-19T09:41:07.733Z,11596.00
2018-02-19T09:43:01.134Z,10932.00
2018-02-19T09:44:01.120Z,10448.00
2018-02-19T09:45:54.502Z,10396.00
2018-02-19T09:46:54.494Z,10444.00
2018-02-19T09:48:47.914Z,10768.00
2018-02-19T09:49:47.883Z,11368.00
2018-02-19T09:51:41.270Z,12652.00
2018-02-19T09:52:41.267Z,13512.00
2018-02-19T09:54:34.674Z,14452.00
2018-02-19T09:55:34.658Z,14488.00
2018-02-19T09:57:28.042Z,13716.00
2018-02-19T09:58:28.054Z,13172.00
2018-02-19T10:00:21.448Z,13128.00
2018-02-19T10:01:21.435Z,13384.00
2018-02-19T10:03:14.797Z,13756.00
2018-02-19T10:04:14.799Z,13496.00
2018-02-19T10:06:08.205Z,12672.00
2018-02-19T10:07:08.186Z,12488.00
2018-02-19T10:09:01.586Z,12416.00
2018-02-19T10:10:01.577Z,12296.00
2018-02-19T10:11:54.948Z,12648.00
2018-02-19T10:12:54.952Z,12988.00
2018-02-19T10:14:48.351Z,13340.00
2018-02-19T10:15:48.334Z,13512.00
2018-02-19T10:17:41.714Z,13876.00
2018-02-19T10:18:41.716Z,14124.00
2018-02-19T10:20:35.134Z,14292.00
2018-02-19T10:21:35.108Z,14248.00
2018-02-19T10:23:28.535Z,14004.00
2018-02-19T10:24:28.519Z,13840.00
2018-02-19T10:26:21.893Z,13492.00
2018-02-19T10:27:21.877Z,13164.00
2018-02-19T10:29:15.261Z,12536.00
2018-02-19T10:30:15.259Z,12328.00
2018-02-19T10:32:08.658Z,12428.00
2018-02-19T10:33:08.639Z,12608.00
2018-02-19T10:35:02.021Z,13212.00
2018-02-19T10:36:02.023Z,13636.00
2018-02-19T10:37:55.426Z,13900.00
2018-02-19T10:38:55.407Z,13508.00
2018-02-19T10:40:48.811Z,12136.00
2018-02-19T10:41:48.792Z,11348.00
2018-02-19T10:43:42.185Z,10416.00
2018-02-19T10:44:42.250Z,10124.00
2018-02-19T10:46:35.606Z,10020.00
2018-02-19T10:47:35.568Z,10228.00
2018-02-19T10:49:28.951Z,10972.00
2018-02-19T10:50:28.955Z,11468.00
2018-02-19T10:52:22.358Z,12540.00
2018-02-19T10:53:22.338Z,13112.00
2018-02-19T10:55:15.715Z,13696.00
2018-02-19T10:56:15.718Z,13840.00
2018-02-19T10:58:09.131Z,13916.00
2018-02-19T10:59:09.112Z,14096.00
2018-02-19T11:01:02.497Z,14640.00
2018-02-19T11:02:02.500Z,14824.00
2018-02-19T11:03:55.903Z,14772.00
2018-02-19T11:04:55.886Z,14744.00
2018-02-19T11:06:49.263Z,14720.00
2018-02-19T11:07:49.265Z,14580.00
2018-02-19T11:09:42.667Z,14364.00
2018-02-19T11:10:42.650Z,14296.00
2018-02-19T11:12:36.031Z,14340.00
2018-02-19T11:13:36.038Z,14608.00
2018-02-19T11:15:29.435Z,14844.00
2018-02-19T11:16:29.416Z,14564.00
2018-02-19T11:18:22.852Z,14388.00
2018-02-19T11:19:22.809Z,14416.00
2018-02-19T11:21:16.183Z,14364.00
2018-02-19T11:22:16.191Z,14160.00
2018-02-19T11:24:09.607Z,14000.00
2018-02-19T11:25:09.584Z,14084.00
2018-02-19T11:27:02.975Z,13664.00
2018-02-19T11:28:02.977Z,13388.00
2018-02-19T11:29:56.382Z,13008.00
2018-02-19T11:30:56.361Z,12676.00
2018-02-19T11:32:49.754Z,12420.00
2018-02-19T11:33:49.748Z,12460.00
2018-02-19T11:35:43.164Z,12860.00
2018-02-19T11:36:43.146Z,13324.00
2018-02-19T11:38:36.522Z,13708.00
2018-02-19T11:39:36.525Z,13552.00
2018-02-19T11:41:29.928Z,13248.00
2018-02-19T11:42:29.910Z,13116.00
2018-02-19T11:44:23.300Z,12680.00
2018-02-19T11:45:23.297Z,12424.00
2018-02-19T11:47:16.714Z,12200.00
2018-02-19T11:48:16.684Z,12116.00
2018-02-19T11:50:10.061Z,11892.00
2018-02-19T11:51:10.064Z,11784.00
2018-02-19T11:53:03.483Z,11648.00
2018-02-19T11:54:03.455Z,11544.00
2018-02-19T11:55:56.841Z,10784.00
2018-02-19T11:56:56.845Z,10520.00
2018-02-19T11:58:50.290Z,10580.00
2018-02-19T11:59:50.304Z,10700.00
2018-02-19T12:01:43.657Z,11116.00
2018-02-19T12:02:43.659Z,11356.00
2018-02-19T12:04:37.064Z,11716.00
2018-02-19T12:05:37.044Z,11840.00
2018-02-19T12:07:30.425Z,11892.00
2018-02-19T12:08:30.434Z,11856.00
2018-02-19T12:10:23.843Z,11744.00
2018-02-19T12:11:23.812Z,11784.00
2018-02-19T12:13:17.194Z,11972.00
2018-02-19T12:14:17.204Z,11956.00
2018-02-19T12:16:10.603Z,11572.00
2018-02-19T12:17:10.582Z,11316.00
2018-02-19T12:19:03.970Z,10776.00
2018-02-19T12:20:03.971Z,10468.00
2018-02-19T12:21:57.383Z,9916.00
2018-02-19T12:22:57.362Z,9668.00
2018-02-19T12:24:50.765Z,9668.00
2018-02-19T12:25:50.745Z,9752.00
2018-02-19T12:27:44.127Z,10340.00
2018-02-19T12:28:44.129Z,10508.00
2018-02-19T12:30:37.550Z,10420.00
2018-02-19T12:31:37.530Z,10616.00
2018-02-19T12:33:30.905Z,11716.00
2018-02-19T12:34:30.909Z,11988.00
2018-02-19T12:36:24.310Z,11464.00
2018-02-19T12:37:24.293Z,10748.00
2018-02-19T12:39:17.683Z,9884.00
2018-02-19T12:40:17.692Z,9520.00
2018-02-19T12:42:11.091Z,9356.00
2018-02-19T12:43:11.071Z,9380.00
2018-02-19T12:45:04.452Z,9084.00
2018-02-19T12:46:04.463Z,9268.00
2018-02-19T12:47:57.855Z,10468.00
2018-02-19T12:48:57.838Z,10868.00
2018-02-19T12:50:51.272Z,9940.00
2018-02-19T12:51:51.267Z,9352.00
2018-02-19T12:53:44.667Z,8744.00
2018-02-19T12:54:44.654Z,8524.00
2018-02-19T12:56:38.030Z,8820.00
2018-02-19T12:57:38.033Z,9192.00
2018-02-19T12:59:31.508Z,9600.00
2018-02-19T13:00:31.418Z,10008.00
2018-02-19T13:02:24.804Z,10648.00
2018-02-19T13:03:24.803Z,10804.00
2018-02-19T13:05:18.202Z,11152.00
2018-02-19T13:06:18.185Z,11452.00
2018-02-19T13:08:11.572Z,11376.00
2018-02-19T13:09:11.568Z,10984.00
2018-02-19T13:11:04.970Z,10260.00
2018-02-19T13:12:04.954Z,10056.00
2018-02-19T13:13:58.347Z,9844.00
2018-02-19T13:14:58.339Z,9748.00
2018-02-19T13:16:51.736Z,9916.00
2018-02-19T13:17:51.718Z,10068.00
2018-02-19T13:19:45.108Z,10080.00
2018-02-19T13:20:45.113Z,10032.00
2018-02-19T13:22:38.512Z,10168.00
2018-02-19T13:23:38.496Z,10376.00
2018-02-19T13:25:31.878Z,11020.00
2018-02-19T13:26:31.887Z,11436.00
2018-02-19T13:28:25.297Z,11952.00
2018-02-19T13:29:25.275Z,12076.00
2018-02-19T13:31:18.688Z,11988.00
2018-02-19T13:32:18.682Z,11844.00
2018-02-19T13:34:12.081Z,11360.00
2018-02-19T13:35:12.057Z,11000.00
2018-02-19T13:37:05.515Z,9840.00
2018-02-19T13:38:05.454Z,9380.00
2018-02-19T13:39:58.839Z,8920.00
2018-02-19T13:40:58.850Z,8880.00
2018-02-19T13:42:52.245Z,8664.00
2018-02-19T13:43:52.223Z,8344.00
2018-02-19T13:45:45.606Z,8024.00
2018-02-19T13:46:45.613Z,8024.00
2018-02-19T13:48:39.046Z,8196.00
2018-02-19T13:49:38.990Z,8344.00
2018-02-19T13:51:32.386Z,8648.00
2018-02-19T13:52:32.394Z,8780.00
2018-02-19T13:54:25.807Z,9192.00
2018-02-19T13:55:25.775Z,9388.00
2018-02-19T13:57:19.153Z,9856.00
2018-02-19T13:58:19.158Z,10120.00
2018-02-19T14:00:12.565Z,10348.00
2018-02-19T14:01:12.574Z,10184.00
2018-02-19T14:03:05.943Z,9700.00
2018-02-19T14:04:05.971Z,9544.00
2018-02-19T14:05:59.358Z,9360.00
2018-02-19T14:06:59.334Z,9228.00
2018-02-19T14:08:52.757Z,8892.00
2018-02-19T14:09:52.740Z,8816.00
2018-02-19T14:11:46.108Z,8812.00
2018-02-19T14:12:46.114Z,8828.00
2018-02-19T14:14:39.509Z,8784.00
2018-02-19T14:15:39.492Z,8692.00
2018-02-19T14:17:32.881Z,8416.00
2018-02-19T14:18:32.878Z,8328.00
2018-02-19T14:20:26.281Z,8296.00
2018-02-19T14:21:26.263Z,8252.00
2018-02-19T14:23:19.649Z,8060.00
2018-02-19T14:24:19.673Z,7904.00
2018-02-19T14:26:13.053Z,7724.00
2018-02-19T14:27:13.084Z,7660.00
2018-02-19T14:29:06.426Z,7544.00
2018-02-19T14:30:06.425Z,7532.00
2018-02-19T14:31:59.819Z,7392.00
2018-02-19T14:32:59.804Z,7348.00
2018-02-19T14:34:53.181Z,7348.00
2018-02-19T14:35:53.182Z,7360.00
2018-02-19T14:37:46.583Z,7244.00
2018-02-19T14:38:46.580Z,7124.00
2018-02-19T14:40:39.947Z,7040.00
2018-02-19T14:41:39.958Z,7108.00
2018-02-19T14:43:33.352Z,7112.00
2018-02-19T14:44:33.332Z,7080.00
2018-02-19T14:46:26.714Z,7120.00
2018-02-19T14:47:26.715Z,7140.00
2018-02-19T14:49:20.119Z,7092.00
2018-02-19T14:50:20.101Z,6904.00
2018-02-19T14:52:13.503Z,6560.00
2018-02-19T14:53:13.483Z,6340.00
2018-02-19T14:55:06.866Z,5928.00
2018-02-19T14:56:06.877Z,5716.00
2018-02-19T14:58:00.289Z,5344.00
2018-02-19T14:59:00.274Z,5200.00
2018-02-19T15:00:53.662Z,5076.00
2018-02-19T15:01:53.655Z,5036.00
2018-02-19T15:03:47.058Z,4860.00
2018-02-19T15:04:47.037Z,4728.00
2018-02-19T15:06:40.417Z,4508.00
2018-02-19T15:07:40.419Z,4384.00
2018-02-19T15:09:33.821Z,4124.00
2018-02-19T15:10:33.804Z,3964.00
2018-02-19T15:12:27.193Z,3668.00
2018-02-19T15:13:27.188Z,3576.00
2018-02-19T15:15:20.604Z,3540.00
2018-02-19T15:16:20.578Z,3528.00
2018-02-19T15:18:13.950Z,3588.00
2018-02-19T15:19:13.953Z,3624.00
2018-02-19T15:21:07.353Z,3600.00
2018-02-19T15:22:07.337Z,3600.00
2018-02-19T15:24:00.723Z,3588.00
2018-02-19T15:25:00.725Z,3600.00
2018-02-19T15:26:54.135Z,3528.00
2018-02-19T15:27:54.106Z,3464.00
2018-02-19T15:29:47.518Z,3324.00
2018-02-19T15:30:47.502Z,3268.00
2018-02-19T15:32:40.870Z,3200.00
2018-02-19T15:33:40.868Z,3160.00
2018-02-19T15:35:34.284Z,3104.00
2018-02-19T15:36:34.264Z,3084.00
2018-02-19T15:38:27.646Z,3032.00
2018-02-19T15:39:27.652Z,2984.00
2018-02-19T15:41:22.089Z,2916.00
2018-02-19T15:42:22.070Z,2900.00
2018-02-19T15:44:15.466Z,2896.00
2018-02-19T15:45:15.455Z,2836.00
2018-02-19T15:47:08.853Z,2636.00
2018-02-19T15:48:08.841Z,2576.00
2018-02-19T15:50:02.239Z,2564.00
2018-02-19T15:51:02.224Z,2628.00
2018-02-19T15:52:55.619Z,2676.00
2018-02-19T15:53:55.596Z,2624.00
2018-02-19T15:55:48.995Z,2428.00
2018-02-19T15:56:48.999Z,2376.00
2018-02-19T15:58:42.392Z,2360.00
2018-02-19T15:59:42.369Z,2300.00
2018-02-19T16:01:35.766Z,2160.00
2018-02-19T16:02:35.764Z,2100.00
2018-02-19T16:04:29.165Z,2104.00
2018-02-19T16:05:29.147Z,2060.00
2018-02-19T16:07:22.536Z,1864.00
2018-02-19T16:08:22.538Z,1768.00
2018-02-19T16:10:15.947Z,1588.00
2018-02-19T16:11:15.935Z,1524.00
2018-02-19T16:13:09.313Z,1416.00
2018-02-19T16:14:09.329Z,1368.00
2018-02-19T16:16:02.714Z,1252.00
2018-02-19T16:17:02.696Z,1188.00
2018-02-19T16:18:56.177Z,1080.00
2018-02-19T16:19:56.145Z,1028.00
2018-02-19T16:21:49.535Z,932.00
2018-02-19T16:22:49.526Z,884.00
2018-02-19T16:24:42.928Z,796.00
2018-02-19T16:25:42.924Z,760.00
2018-02-19T16:27:36.303Z,692.00
2018-02-19T16:28:36.300Z,640.00
2018-02-19T16:30:29.701Z,544.00
2018-02-19T16:31:29.680Z,500.00
2018-02-19T16:33:23.079Z,424.00
2018-02-19T16:34:23.089Z,392.00
2018-02-19T16:36:16.463Z,344.00
2018-02-19T16:37:16.460Z,316.00
2018-02-19T16:39:09.831Z,272.00
2018-02-19T16:40:09.823Z,248.00
2018-02-19T16:42:03.287Z,212.00
2018-02-19T16:43:03.272Z,196.00
2018-02-19T16:44:57.661Z,164.00
2018-02-19T16:45:57.658Z,144.00
2018-02-19T16:47:51.057Z,120.00
2018-02-19T16:48:51.064Z,104.00
2018-02-19T16:50:45.436Z,88.00
2018-02-19T16:51:45.426Z,76.00
2018-02-19T16:53:38.844Z,60.00
2018-02-19T16:54:38.820Z,52.00
2018-02-19T16:56:32.180Z,40.00
2018-02-19T16:57:32.209Z,36.00
2018-02-19T16:59:26.634Z,28.00
2018-02-19T17:00:26.599Z,20.00
2018-02-19T17:02:19.965Z,16.00
2018-02-19T17:03:19.943Z,12.00
2018-02-19T17:05:13.321Z,12.00
2018-02-19T17:06:13.335Z,8.00
2018-02-19T17:08:06.752Z,4.00
2018-02-19T17:09:06.723Z,4.00
2018-02-19T17:11:00.108Z,4.00
2018-02-19T17:12:00.092Z,4.00
2018-02-19T17:13:54.567Z,4.00
2018-02-19T17:14:54.529Z,0.00
2018-02-19T17:16:47.868Z,0.00
2018-02-19T17:17:47.852Z,0.00
2018-02-19T17:19:42.261Z,0.00
2018-02-19T17:20:42.229Z,0.00
2018-02-19T17:22:35.632Z,0.00
2018-02-19T17:23:35.606Z,0.00
2018-02-19T17:25:29.010Z,0.00
2018-02-19T17:26:28.989Z,0.00
2018-02-19T17:28:22.421Z,0.00
2018-02-19T17:29:22.378Z,0.00
2018-02-19T17:31:15.771Z,0.00
2018-02-19T17:32:15.776Z,0.00
2018-02-19T17:34:09.136Z,0.00
2018-02-19T17:35:09.126Z,0.00
2018-02-19T17:37:02.563Z,0.00
2018-02-19T17:38:02.546Z,0.00
2018-02-19T17:39:55.939Z,0.00
2018-02-19T17:40:55.894Z,0.00
2018-02-19T17:42:49.308Z,0.00
2018-02-19T17:43:49.318Z,0.00
2018-02-19T17:45:42.669Z,0.00
2018-02-19T17:46:42.700Z,0.00
2018-02-19T17:48:36.076Z,0.00
2018-02-19T17:49:36.070Z,0.00
2018-02-19T17:51:29.466Z,0.00
2018-02-19T17:52:29.456Z,0.00
2018-02-19T17:54:22.852Z,0.00
2018-02-19T17:55:22.858Z,0.00
2018-02-19T17:57:16.343Z,0.00
2018-02-19T17:58:16.287Z,0.00
2018-02-19T18:00:09.685Z,0.00
2018-02-19T18:01:09.660Z,0.00
2018-02-19T18:03:03.067Z,0.00